KHSD

Sundance Airpark Airport

Oklahoma City, Oklahoma, USA

KHSD 110855Z AUTO 23006KT 10SM CLR 06/M10 A3021 RMK A01

Observed Flight Rules
Dec-11 @ 08:55 UTC (30 minutes ago) Visual Flight Rules
Wind Visibility Clouds
230° at 6 knots 10 miles
  • Clear skies
Temperatures Readings
Current 6°C / 43°F
Dewpoint -10°C / 14°F
Humidity 31%
Altimeter 30.21" Hg
Pressure 1023 hPa
Elevation 364
Observed Flight Rules
Dec-11 @ 08:55 UTC
(30 minutes ago)
VFR
Wind Visibility
230° at 6 knots 10 miles
Clouds
  • Clear skies
Temperature Dewpoint
6°C / 43°F -10°C / 14°F
Humidity Altimeter Pressure
31% 30.21" Hg 1023 hPa